createdAt,value
2023-01-04T00:00:04.640Z,5.07
2023-01-04T00:14:17.365Z,5.33
2023-01-04T00:28:29.916Z,5.46
2023-01-04T00:42:41.974Z,5.3
2023-01-04T00:56:54.124Z,5.31
2023-01-04T01:11:06.898Z,5.4
2023-01-04T01:25:19.315Z,5.31
2023-01-04T01:39:27.713Z,5.11
2023-01-04T01:53:40.996Z,5.19
2023-01-04T02:07:52.658Z,5.3
2023-01-04T02:22:06.020Z,5.53
2023-01-04T02:36:20.233Z,5.69
2023-01-04T02:50:29.568Z,5.79
2023-01-04T03:04:42.377Z,5.87
2023-01-04T03:18:54.676Z,5.91
2023-01-04T03:33:07.722Z,6.01
2023-01-04T03:47:20.798Z,6.16
2023-01-04T04:01:33.374Z,6.29
2023-01-04T04:15:46.714Z,6.17
2023-01-04T04:29:57.387Z,6.05
2023-01-04T04:44:12.586Z,6.01
2023-01-04T04:58:20.332Z,5.96
2023-01-04T05:26:46.366Z,6.03
2023-01-04T05:40:58.953Z,6.02
2023-01-04T05:55:12.293Z,6.06
2023-01-04T06:09:23.573Z,6.66
2023-01-04T06:23:37.917Z,7.11
2023-01-04T06:37:50.918Z,7.22
2023-01-04T06:52:03.121Z,7.42
2023-01-04T07:06:15.979Z,7.65
2023-01-04T07:20:30.002Z,7.79
2023-01-04T07:34:42.624Z,7.88
2023-01-04T07:48:51.485Z,7.99
2023-01-04T08:03:04.629Z,8.11
2023-01-04T08:17:17.450Z,8.2
2023-01-04T08:31:29.712Z,8.26
2023-01-04T08:45:43.361Z,8.28
2023-01-04T08:59:57.752Z,8.36
2023-01-04T09:14:09.249Z,8.5
2023-01-04T09:28:20.191Z,8.64
2023-01-04T09:42:37.372Z,8.75
2023-01-04T09:56:47.199Z,8.87
2023-01-04T10:10:59.812Z,8.99
2023-01-04T10:25:12.817Z,9.03
2023-01-04T10:39:32.242Z,9.13
2023-01-04T10:39:35.936Z,9.13
2023-01-04T10:53:37.757Z,9.31
2023-01-04T11:07:50.590Z,9.41
2023-01-04T11:08:15.959Z,9.44
2023-01-04T11:17:49.319Z,9.46
2023-01-04T11:27:26.834Z,9.52
2023-01-04T11:36:56.300Z,9.56
2023-01-04T11:46:28.601Z,9.56
2023-01-04T11:50:24.792Z,9.64
2023-01-04T11:56:04.077Z,9.64
2023-01-04T12:04:38.775Z,9.66
2023-01-04T12:18:50.259Z,9.68
2023-01-04T12:33:03.732Z,9.72
2023-01-04T12:47:15.666Z,9.75
2023-01-04T13:01:29.658Z,9.79
2023-01-04T13:15:41.950Z,9.83
2023-01-04T13:29:55.489Z,9.88
2023-01-04T13:44:08.118Z,9.97
2023-01-04T13:58:21.334Z,10.16
2023-01-04T14:12:35.355Z,10.28
2023-01-04T14:26:47.785Z,10.16
2023-01-04T14:40:59.582Z,10.11
2023-01-04T14:55:13.201Z,9.97
2023-01-04T15:09:25.195Z,9.88
2023-01-04T15:23:37.948Z,9.82
2023-01-04T15:37:51.131Z,9.78
2023-01-04T15:52:06.184Z,9.77
2023-01-04T16:06:14.831Z,9.79
2023-01-04T16:20:29.831Z,9.83
2023-01-04T16:34:39.745Z,9.86
2023-01-04T16:48:51.447Z,9.89
2023-01-04T17:03:04.297Z,9.98
2023-01-04T17:17:17.243Z,10.07
2023-01-04T17:31:33.043Z,10.13
2023-01-04T17:45:42.035Z,10.16
2023-01-04T17:59:54.780Z,10.19
2023-01-04T18:14:08.156Z,10.22
2023-01-04T18:28:18.361Z,10.29
2023-01-04T18:42:31.858Z,10.28
2023-01-04T18:56:43.966Z,10.25
2023-01-04T19:10:57.350Z,10.24
2023-01-04T19:25:09.362Z,10.39
2023-01-04T19:39:22.291Z,10.37
2023-01-04T19:53:34.843Z,10.07
2023-01-04T20:07:45.101Z,9.92
2023-01-04T20:21:58.139Z,9.85
2023-01-04T20:36:09.945Z,9.76
2023-01-04T20:50:22.729Z,9.87
2023-01-04T21:04:36.029Z,10.11
2023-01-04T21:18:49.859Z,10.36
2023-01-04T21:33:02.772Z,10.52
2023-01-04T21:47:16.229Z,10.72
2023-01-04T22:01:34.349Z,10.88
2023-01-04T22:15:42.851Z,10.98
2023-01-04T22:29:56.660Z,10.85
2023-01-04T22:44:08.541Z,10.78
2023-01-04T23:12:33.905Z,10.8
2023-01-04T23:26:47.052Z,10.77
2023-01-04T23:41:01.213Z,10.7
2023-01-04T23:55:11.163Z,10.6
